Terminal Aerodrome Forecast
Issued by NWS Milwaukee/Sullivan, WI

Home | Current Version | Previous Version | Text Only | Print | Product List | Glossary On
Versions: 1 2 3 4 5 6 7 8 9 10 11 12 13 14 15 16 17 18 19 20 21 22 23 24 25 26 27 28 29 30 31 32 33 34 35 36 37 38 39 40 41 42 43 44 45 46 47 48 49 50
000
FTUS43 KMKX 241129
TAFMSN
TAF
KMSN 241129Z 2412/2512 05017G25KT 3SM -RA BR VCTS OVC008CB
      TEMPO 2412/2415 5SM -FZRA BR OVC009
     FM241500 05017G27KT 3SM -RA BR OVC008
     FM241800 04016G24KT 3SM -RA BR OVC003
     FM242200 02011G19KT 4SM -FZRA BR OVC008
     FM250300 35011G20KT 3SM -SN OVC008
     FM250800 32013G23KT 2SM -SN OVC015=

USA.gov is the U.S. government's official web portal to all federal, state and local government web resources and services.